Huvudsida
METAR-TAF:

METAR-TAF

Flygplatser :

Kristianstad, Sverige

Kristianstad Österlen Airport

latitud: 55-55N, longitud: 014-05E, höjd: 23 m

Aktuellt väderrapport

Denna rapport gjordes för 13 minuter sedan, klockan 03:20 UTC
Vind 4 kt från väst
Temperatur -1°C
Fuktighet 100%
Tryck 998 hPa
Sikt 10 km eller mer

METAR: ESMK 190320Z AUTO 26004KT 9999 OVC047/// M01/M01 Q0998

Tid: 04:33 (03:33 UTC)

Väderprognos

Denna rapport gjordes för 10 timmar och 22 minuter sedan, klockan 17:11 UTC
Prognos gäller från 18 kl. 18 UTC till 18 kl. 20 UTC
Vind 8 kt från nord/nordost
Sikt 10 km eller mer
Brutna moln på en höjd av 200 ft
Temporärt
från 18 kl. 18 UTC till 18 kl. 20 UTC
Spridda moln på en höjd av 200 ft
Brutna moln på en höjd av 1500 ft

TAF: ESMK 181711Z 1818/1820 03008KT 9999 BKN002 TEMPO 1818/1820 SCT002 BKN015

Aktuella väderrapporter och prognoser från 4000 flygplatser (METAR- och TAF-rapporter).

De tillgängliga stationerna syns som gula och röda prickar på kartan.

För musen över prickarna för att se namnen på stationerna.

Klicka sedan för att få väderrapporter och prognoser.

För att ändra kartan: Klicka på de gröna knapparna med ett svart kors på för att zooma in; den gröna knappen med ett streck på för att zooma ut; eller på de gröna pilarna för angränsande kartor.


METAR-TAF: